PreDB.eu

music predb - trance, techno, house, hardstyle, hardcore
updated: 2021-10-23 23:36:26
JAN 3 GB 145 RFEB 3 GB 215 RMAR 4 GB 208 RAPR 6 GB 249 RMAY 6 GB 215 RJUN 7 GB 227 RJUL 4 GB 213 RAUG 5 GB 233 RSEP 5 GB 256 R
2021-09-03 01:19:53Hardstyle615Nutty_T_And_The_Fallen_-_Lust_4_Blood-(NUTTY090)-WEB-2021-SRG_iNT
2021-09-03 01:19:44Hardstyle613Malua_Ft._MC_Diesel_-_Catch_The_Flares-(BTR009)-WEB-2021-SRG_iNT
2021-09-02 12:04:40Hardstyle58Sound_Rush_Ft._Diandra_Faye_-_The_Great_Escape-(AOC057)-SINGLE-WEB-2021-SRG
2021-09-02 12:04:33Hardstyle727Salvation_-_Brave_The_Storm_EP-(PRSPX072)-WEB-2021-SRG
2021-09-02 11:23:19Hardstyle49TNT_X_Alee_-_S.O.S.-(DWX1047)-SINGLE-WEB-2021-FMC
2021-09-02 01:21:37Hardstyle58Serzo_And_Stormerz_Ft._Achou_-_Brighter_Days-(DWX1048)-SINGLE-WEB-2021-SRG
2021-09-02 01:21:29Hardstyle59Hard_Driver_-_Here_I_Am-(DWX1049)-SINGLE-WEB-2021-SRG
2021-09-02 01:21:20Hardstyle511Gasta_Ft._Robbie_Rosen_-_What_Im_Made_Of-(DWX1050)-SINGLE-WEB-2021-SRG
2021-09-02 01:10:03Hardstyle617Jump_Killer_-_Back_Again-WEB-2021-SRG_iNT
2021-09-01 11:50:30Hardstyle520Voidax_-_Black_Hole-(ROUGHR102PRO)-WEB-2021-SRG
2021-09-01 01:43:18Hardstyle611Rooler_And_Villain_-_Hammertime-WEB-2021-SRG_iNT
2021-08-31 16:16:46Hardstyle56Zyon_-_Diamond_Eyes-(MYM031)-SINGLE-WEB-2021-SRG
2021-08-31 12:11:48Hardstyle58Nacion_Ft._MC_Sarge_-_No_Way_Out-(PRSPX071)-SINGLE-WEB-2021-SRG
2021-08-31 12:11:38Hardstyle58KRB_Ft._Leagan_-_Distant_Dream-(AREC065E)-SINGLE-WEB-2021-SRG
2021-08-31 00:18:45Hardstyle57Bright_Visions_And_Spectre_-_Rules-(SCARB044)-SINGLE-WEB-2021-SRG
2021-08-29 14:06:52Hardstyle618B-Elementz_-_Come_Back_To_Life-(FUSION444)-WEB-2021-SRG_iNT
2021-08-27 15:47:13Hardstyle57Rawframez_-_Never_Stop-(SGR023E)-SINGLE-WEB-2021-SRG
2021-08-27 15:47:02Hardstyle511Radical_Redemption_And_ATILAX_-_Man_Of_The_Hour-(MINUS136)-SINGLE-WEB-2021-SRG
2021-08-27 15:46:51Hardstyle511Limitless_-_Tear_Me_Down-(UPR097)-SINGLE-WEB-2021-SRG
2021-08-27 15:46:42Hardstyle57Dom_Livez_-_No_More_Pain-(WRD006)-SINGLE-WEB-2021-SRG
2021-08-27 15:46:28Hardstyle510Cryex_-_Madness_5.0-(APEX032)-SINGLE-WEB-2021-SRG
2021-08-26 17:26:51Hardstyle616ReSpectrum_-_My_Life__Popping_Pillz-(BABY087)-WEB-2021-SRG_iNT
2021-08-26 17:26:13Hardstyle616Magun_-_Indian_Summer-(PUNQ40)-WEB-2021-SRG_iNT
2021-08-26 15:47:28Hardstyle57Kraken_-_All_I_Need-(SSROZ003)-SINGLE-WEB-2021-SRG
2021-08-26 15:47:23Hardstyle510Wildstylez_And_Frontliner_-_The_Unknown-(AOC052)-SINGLE-WEB-2021-SRG
2021-08-26 15:47:17Hardstyle59Rascal_-_My_Tribe-(PRSPX070)-SINGLE-WEB-2021-SRG
2021-08-26 15:47:09Hardstyle59Phyric_And_Alee_-_Release_The_Pain-(RSU013)-SINGLE-WEB-2021-SRG
2021-08-26 15:47:04Hardstyle58Mutilator_And_NOTYPE_-_HUSTLE-(AR018)-SINGLE-WEB-2021-SRG
2021-08-26 15:46:58Hardstyle510High_Resistance_-_Find_A_Reason-(GBE128)-SINGLE-WEB-2021-SRG
2021-08-26 15:05:37Hardstyle737Mynax_-_Paradise_Lost_EP-(LUS60)-WEB-2021-SRG_iNT
2021-08-26 15:05:27Hardstyle617Memorize_Ft._Flotszam_-_Falling_Apart-(PUNQ39)-WEB-2021-SRG_iNT
2021-08-26 15:05:19Hardstyle57Da_Vibe_-_Difficult-(FB20210009)-SINGLE-WEB-2021-SRG_iNT
2021-08-26 15:05:08Hardstyle6181Vision_-_S.O.S.-(DIHD014)-WEB-2021-SRG_iNT
2021-08-25 16:44:02Hardstyle57Averion_And_Fenyn_-_So_High-(DWX1056)-SINGLE-WEB-2021-SRG
2021-08-25 16:43:51Hardstyle617Wasted_Penguinz_-_FKN_Alcoholics_2021-(DWX1044)-WEB-2021-SRG
2021-08-25 16:43:44Hardstyle57Yuta_Imai_And_Tatsunoshin_-_Friends-(DWX1043)-SINGLE-WEB-2021-SRG
2021-08-25 13:57:40Hardstyle617Audiotricz_-_Children_Of_The_Stars-(IAH056)-WEB-2021-SRG_iNT
2021-08-24 18:34:10Hardstyle58Last_Of_Us_-_Supernova-(ETY004)-SINGLE-WEB-2021-SRG
2021-08-24 18:34:01Hardstyle58Fightfears_-_Supposed_To_Be-(AWK005E)-SINGLE-WEB-2021-SRG
2021-08-24 18:33:54Hardstyle56Exproz_-_Fire-(GBR125)-SINGLE-WEB-2021-SRG
2021-08-24 18:33:44Hardstyle59Eternate_-_To_The_Top-(PRSPX069)-SINGLE-WEB-2021-SRG
2021-08-24 18:33:35Hardstyle510D-Block_And_S-Te-Fan_-_Harder_Generation-(EVO075)-SINGLE-WEB-2021-SRG
2021-08-24 18:33:24Hardstyle59Arzadous_-_Cosmos-(UNLR015)-SINGLE-WEB-2021-SRG
2021-08-24 17:46:48Hardstyle620Frequencerz_-_Brave_The_Storm_(Radianze_Remix)-(ROUGH189PRO)-WEB-2021-SRG_iNT
2021-08-22 15:27:51Hardstyle828Phuture_Noize_-_Esc._(Electronic_Heartbreak)_Pt.2-WEB-2021-SRG_iNT
2021-08-22 15:14:11Hardstyle624Ephoric_Ft._Carola_-_Flames-(DT175)-WEB-2021-SRG_iNT
2021-08-20 12:30:08Hardstyle59Insurgent_-_Nightmare-(UPR096)-SINGLE-WEB-2021-SRG
2021-08-19 16:28:55Hardstyle619Ran-D_Ft._XCEPTION_And_Diesel_-_Heaven_And_Hell-(ROUGH188PRO)-WEB-2021-SRG_iNT
2021-08-19 15:53:11Hardstyle514Vazard_-_The_Orange_Tree_(Infiriums_Treemix)-(SPOON230)-SINGLE-WEB-2021-SRG
2021-08-19 15:52:39Hardstyle58Strixter_And_Araysen_Ft._Hicksu_-_Create-(DWX1040)-SINGLE-WEB-2021-SRG
2021-08-19 15:52:30Hardstyle58KEKU_-_In_My_Mind-(PRSPX068)-SINGLE-WEB-2021-SRG
2021-08-19 15:52:20Hardstyle511Hard_Driver_Ft._Carola_-_Get_Up_And_Dance-(DWX1041)-SINGLE-WEB-2021-SRG
2021-08-19 15:52:10Hardstyle58Dr_Phunk_And_Killshot_-_Never_Give_Up-(DWX1042)-SINGLE-WEB-2021-SRG
2021-08-19 15:51:56Hardstyle57Aftershock_And_Atmozfears_Ft._Robin_Valo_-_Reactivate-(AOC056)-SINGLE-WEB-2021-SRG
2021-08-19 15:51:47Hardstyle58Adverze_-_Pray-(SSROZ002)-SINGLE-WEB-2021-SRG
2021-08-19 15:51:37Hardstyle58Adaro_-_No_Time_To_Sleep_(Phrantic_Remix)-(BLACK063)-SINGLE-WEB-2021-SRG
2021-08-17 15:41:25Hardstyle510Stargazer_-_Open_Your_Mind-(PRSPX067)-SINGLE-WEB-2021-SRG
2021-08-17 15:41:12Hardstyle59Resolute_-_Worlds_Collide-(MYM030)-SINGLE-WEB-2021-SRG
2021-08-17 08:05:40Hardstyle57Nightcraft_-_Lost_In_Reality-(SCARB043)-SINGLE-WEB-2021-FMC
2021-08-17 08:01:26Hardstyle511Devotion_-_Looking_Up-(AREC064)-SINGLE-WEB-2021-FMC
2021-08-13 09:53:10Hardstyle58Uncaged_And_MC_Robs_-_Open_The_Cage-(RSR057)-SINGLE-WEB-2021-SRG
2021-08-13 09:52:46Hardstyle57RVAGE_-_Dominate-(MINUS135)-SINGLE-WEB-2021-SRG
2021-08-13 09:51:51Hardstyle512Pulserz_-_Set_Me_Free-(PRSPX066)-SINGLE-WEB-2021-SRG
2021-08-13 09:51:39Hardstyle510Retrospect_-_All_Night-(SSL230)-SINGLE-WEB-2021-SRG
2021-08-13 09:51:19Hardstyle56Kinetic_-_Got_You-(UPR095)-SINGLE-WEB-2021-SRG
2021-08-13 09:51:19Hardstyle59JNXD_Ft._Carola_-_My_Own_Way-(DWX1039)-SINGLE-WEB-2021-SRG
2021-08-13 09:50:46Hardstyle49Hard_Music_Crew_Ft._Mo_And_MC_KD_-_Uncrowned-(HMR106)-SINGLE-WEB-2021-SRG
2021-08-13 09:50:25Hardstyle410Genericz_-_Release_Me-(TR070)-SINGLE-WEB-2021-SRG
2021-08-13 01:44:41Hardstyle58Sebastian_Dubois_-_Tension-(BABY086)-SINGLE-WEB-2021-SRG_iNT
2021-08-12 11:49:50Hardstyle59Deviouz_-_Never_Give_In-(SSROZ001)-SINGLE-WEB-2021-SRG
2021-08-12 11:49:48Hardstyle59Watremez_-_Frozen-(KNR026)-SINGLE-WEB-2021-SRG
2021-08-12 11:49:26Hardstyle510Luxtreme_-_Dreamers_Of_This_World-(GBE127)-SINGLE-WEB-2021-SRG
2021-08-12 11:49:04Hardstyle59Coone_Ft._Atilax_-_Yours_Truly-(DWX1038)-SINGLE-WEB-2021-SRG
2021-08-12 11:48:45Hardstyle510Bass_Modulators_-_Bass_Ex_Machina-(AOC055)-SINGLE-WEB-2021-SRG
2021-08-12 11:48:02Hardstyle513B3R3TTA_And_SURG3_-_Victorious-(RSU012)-SINGLE-WEB-2021-SRG
2021-08-12 00:41:31Hardstyle615Dailucia_-_One_Mans_Dream-(IAH052)-WEB-2021-SRG_iNT
2021-08-11 12:31:12Hardstyle617Invector_And_Radianze_-_Erase_Me-(ROUGHR101PRO)-WEB-2021-SRG_iNT
2021-08-11 11:51:41Hardstyle58Unsenses_-_Falling-(DWX1036)-SINGLE-WEB-2021-SRG
2021-08-11 11:51:19Hardstyle59The_Prophet_-_Underworld-(SCANTRAXX378)-SINGLE-WEB-2021-SRG
2021-08-11 11:51:18Hardstyle615The_Straikerz_And_Arzadous_-_Pain_(Remix_EP)-(GBR124)-WEB-2021-SRG
2021-08-11 11:50:55Hardstyle59Rewildz_Ft._Meryll_-_Infinity-(DWX1037)-SINGLE-WEB-2021-SRG
2021-08-11 11:50:45Hardstyle57JGSW_-_Into_Pieces-(ETY003)-SINGLE-WEB-2021-SRG
2021-08-11 11:50:31Hardstyle58Ncrypta_And_Scarra_-_Reprogram-(ID005)-SINGLE-WEB-2021-SRG
2021-08-11 11:50:17Hardstyle511RAYZEN_And_The_Unit_-_Revival_(Official_Timeless_Festival_2021_Anthem)-(GBD327)-SINGLE-WEB-2021-SRG
2021-08-11 11:50:02Hardstyle510Imperialite_Ft._Fogerz_And_Jesus_O.G_-_Blue_Skies-(AREC063E)-SINGLE-WEB-2021-SRG
2021-08-11 11:49:24Hardstyle510Divinez_-_Dont_Play_With_Fire-(PRSPX065)-SINGLE-WEB-2021-SRG
2021-08-10 18:02:50Hardstyle510D-Block_And_S-Te-Fan_-_Fired_Up_(Wildstylez_Remix)-(EVO074)-SINGLE-WEB-2021-FMC
2021-08-08 15:25:02Hardstyle13124VA_-_Mad_Mates_Vol._02-(MDMVA02)-WEB-2021-SRG_iNT
2021-08-08 15:24:53Hardstyle616System_Of_Loudness_And_Anklebreaker_-_Dreamlands-(DT174)-WEB-2021-SRG_iNT
2021-08-08 15:24:40Hardstyle621SL_Complex_-_Wild_Love-(FUSION443)-WEB-2021-SRG_iNT
2021-08-06 15:20:26Hardstyle615MI37_And_JNS_-_Jafar-WEB-2021-SRG_iNT
2021-08-06 15:11:16Hardstyle59X-Pander_-_A_Whistle-(XPN004E)-SINGLE-WEB-2021-SRG
2021-08-06 15:11:03Hardstyle58Vasto_-_New_World-(APEX031)-SINGLE-WEB-2021-SRG
2021-08-06 15:10:56Hardstyle58Sub_Zero_Project_And_E-Life_-_BASE-(DWX1011)-SINGLE-WEB-2021-SRG
2021-08-06 15:10:44Hardstyle510Spitfire_And_Lea_Konig_-_Euphoria-(MINUS134)-SINGLE-WEB-2021-SRG
2021-08-06 15:10:35Hardstyle58Inner_Conflict_And_MC_Sarge_-_Left_Or_Right-(TR069)-SINGLE-WEB-2021-SRG
2021-08-06 15:10:25Hardstyle59Griever_And_Sakyra_Ft._Eric_Castiglia_-_Stuck_In_A_Maze-(UPR094)-SINGLE-WEB-2021-SRG
2021-08-06 15:10:16Hardstyle58D-Charged_-_Twang-(SSL229)-SINGLE-WEB-2021-SRG
2021-08-06 15:10:08Hardstyle57Crystal_Lake_-_Circles_(Resensed_Remix)-(DWX1034)-SINGLE-WEB-2021-SRG
2021-08-06 15:09:53Hardstyle511AbstructA_-_Sector_Swap-(SGR022E)-SINGLE-WEB-2021-SRG
2021-08-05 04:12:30Hardstyle510Rebelion_And_Warface_-_Switchblades-(SCANTRAXX377)-SINGLE-WEB-2021-SRG
2021-08-05 04:12:22Hardstyle58Dvastate_-_Born_And_Raised-(PRSPX064)-SINGLE-WEB-2021-SRG
2021-08-05 04:12:14Hardstyle58Dawnfire_-_Outcasts-(RSU011)-SINGLE-WEB-2021-SRG
2021-08-04 21:46:19Hardstyle618Cycle_-_Dont_Need_You_No_More-(HBR120)-WEB-2021-SRG_iNT
2021-08-04 12:08:22Hardstyle59Time_Art_-_Keep_On_Moving-(AREC062E)-SINGLE-WEB-2021-SRG
2021-08-04 12:08:12Hardstyle59Syphoric_-_Dark_Places-(PRSPX063)-SINGLE-WEB-2021-SRG
2021-08-04 12:08:05Hardstyle59Kronos_And_Adaro_-_Up_2_No_Good_(Original_Mix)-(BLACK061)-SINGLE-WEB-2021-SRG
2021-08-04 12:07:56Hardstyle57Kid_Columbo_And_Horseplay_-_Brighter_Days-(DWX1035)-SINGLE-WEB-2021-SRG
2021-08-04 12:07:49Hardstyle59Hard_Driver_-_Heaven_Can_Wait-(DWX1033)-SINGLE-WEB-2021-SRG
2021-08-04 12:07:32Hardstyle616Eternate_-_Volume_Check_EP-(UNLR014)-WEB-2021-SRG
2021-08-04 12:07:24Hardstyle59Digital_Mindz_Ft._Vivian_Moon_-_Waiting_To_Be_Saved-(DWX1032)-SINGLE-WEB-2021-SRG
2021-08-04 12:07:17Hardstyle510Devin_Wild_And_JDX_Ft._ANVY_-_Scream_Louder-(SCANTRAXX376)-SINGLE-WEB-2021-SRG
2021-08-04 12:07:08Hardstyle618Degos_And_Re-Done_-_Underground_Noise-(NBQ118PRO)-WEB-2021-SRG_iNT
2021-08-04 12:07:01Hardstyle59Bassbrain_-_Drink_Beer-(DWX1031)-SINGLE-WEB-2021-SRG
2021-08-01 15:10:37Hardstyle616B-Savage_-_Sound_Theory-(NUTTY089)-WEB-2021-SRG_iNT
2021-07-31 13:26:20Hardstyle47Phuture_Noize_-_Blame_Game.-SINGLE-WEB-2021-FMC
2021-07-30 03:43:40Hardstyle619Super_Marco_May_-_Calipso-(BKW032)-WEB-2021-SRG
2021-07-30 03:43:33Hardstyle511Radical_Redemption_-_Brutal_9.0-(MINUS133)-SINGLE-WEB-2021-SRG
2021-07-30 03:43:25Hardstyle59Phantom_-_Into_The_Unknown-(UPR093)-SINGLE-WEB-2021-SRG
2021-07-30 03:43:16Hardstyle511Mike_Enemy_Ft._Annie_Pak_-_Better_On_You-(DWX1029)-SINGLE-WEB-2021-SRG
2021-07-30 03:43:08Hardstyle59Lady_Faith_Ft._Szen_-_Summer-(GLOBAL019)-SINGLE-WEB-2021-SRG
2021-07-30 03:43:00Hardstyle617Killaheadz_-_Keep_Trying-(ELL038)-WEB-2021-SRG
2021-07-30 03:42:47Hardstyle510Igniter_-_Harmony-(GBE126)-SINGLE-WEB-2021-SRG
2021-07-30 03:19:17Hardstyle59Drunkhertz_-_Forget_And_Forgive-(ACTDRK067)-SINGLE-WEB-2021-SRG_iNT
2021-07-29 05:30:29Hardstyle59Phyric_-_I_Believed_In_You-(PRSPX062)-SINGLE-WEB-2021-FMC
2021-07-29 05:29:49Hardstyle510KELTEK_-_Echo-(SCAN375)-SINGLE-WEB-2021-FMC
2021-07-28 15:13:15Hardstyle620Code_Black_-_Unbreakable-(IAH055)-WEB-2021-SRG_iNT
2021-07-28 13:42:57Hardstyle58Element_-_Aureum-SINGLE-WEB-2021-SRG_iNT
2021-07-28 13:34:47Hardstyle57Udex_-_Unreal-(H4H080)-SINGLE-WEB-2021-SRG
2021-07-28 13:33:51Hardstyle59Neroz_-_Kickdrum_Addict_(Extended_Mix)-(H4H079)-SINGLE-WEB-2021-SRG
2021-07-28 13:33:39Hardstyle59A-RIZE_-_Faith_Of_The_Saint-(ETY002)-SINGLE-WEB-2021-SRG
2021-07-28 13:16:51Hardstyle59DJ_Wheelz_-_Idky-(LOV108)-SINGLE-WEB-2021-SRG_iNT
2021-07-27 11:14:30Hardstyle48Rascal_-_Dragonfire-(PRSPX061)-SINGLE-WEB-2021-SRG
2021-07-27 11:14:23Hardstyle57OMNI_And_RAWPVCK_-_Kick_Your_Ass-(GBR123)-SINGLE-WEB-2021-SRG
2021-07-27 11:14:10Hardstyle56Level_One_And_MC_Raise_-_Unchain_Humanity-(SCARB042)-SINGLE-WEB-2021-SRG
2021-07-27 11:14:01Hardstyle56Krowdexx_-_Mind_Blowing-(GBD326)-SINGLE-WEB-2021-SRG
2021-07-27 11:13:48Hardstyle512D-Block_And_S-Te-Fan_-_Gates_Of_Paradise-(EVO073)-SINGLE-WEB-2021-SRG
2021-07-27 11:13:40Hardstyle59Artimaze_-_Above_Water-(AREC061E)-SINGLE-WEB-2021-SRG
2021-07-25 15:14:59Hardstyle618Xense_-_Up_In_The_Clouds_(Jay_Reeve_Remix)-(DT173)-WEB-2021-SRG_iNT
2021-07-25 15:14:41Hardstyle617Watboman_-_On_Fire-(FUSION442)-WEB-2021-SRG_iNT
2021-07-23 22:03:34Hardstyle618MaRLo_And_Frontliner_-_Hook-WEB-2021-FMC
2021-07-23 14:30:56Hardstyle59Navion_And_Oryon_Ft._Summer_Haze_-_Spotlight-(DWX1028)-SINGLE-WEB-2021-SRG
2021-07-23 14:30:45Hardstyle57D-Sturb_-_Fire_And_Blood-(EOL156)-SINGLE-WEB-2021-SRG
2021-07-23 14:30:35Hardstyle510Cold_Confusion_-_Energy_Levels-(MINUS132)-SINGLE-WEB-2021-SRG
2021-07-23 13:17:31Hardstyle44342VA_-_Hardstyle_Sounds_2021.1-(MOR30920)-WEB-2021-SRG_iNT
2021-07-23 11:56:01Hardstyle59Varmint_-_Rocket_Jump-(UPR092)-SINGLE-WEB-2021-SRG
2021-07-23 11:55:58Hardstyle834VA_-_THE_RECRUITS_1-(RSR056)-WEB-2021-SRG
2021-07-23 11:55:45Hardstyle57Scarra_-_CONTROL-(APEX030)-SINGLE-WEB-2021-SRG
2021-07-23 11:55:36Hardstyle58BENGR_-_Take_Whats_Mine-(SCARB041)-SINGLE-WEB-2021-SRG
2021-07-23 11:55:28Hardstyle57Asterz_-_At_Night-(WRD005)-SINGLE-WEB-2021-SRG
2021-07-23 10:53:37Hardstyle57Deenis_-_Alive-(DMW239)-SINGLE-WEB-2021-FMC
2021-07-23 10:51:46Hardstyle511Sunset_Bros_Feat_Bianca_-_Firestorm-(HUSSYCD6750B)-SINGLE-WEB-2021-FMC
2021-07-22 16:09:23Hardstyle510Re-Generate_-_Hallucinations-(BABY085)-SINGLE-WEB-2021-SRG_iNT
2021-07-22 16:09:13Hardstyle618TNT_-_Reverse_The_Bass-(Q271PRO)-WEB-2021-SRG_iNT
2021-07-22 16:09:02Hardstyle621MYST_-_Find_You-(NBQ114PRO)-WEB-2021-SRG_iNT
2021-07-22 15:51:22Hardstyle57Sub_Sonik_-_Maniac-(DWX1027)-SINGLE-WEB-2021-SRG
2021-07-22 15:51:01Hardstyle58Griever_And_Chaos_Project_-_Cursed-(PRSPX060)-SINGLE-WEB-2021-SRG
2021-07-22 15:49:28Hardstyle510Fraqment_-_Born_And_Bred-(RSU010)-SINGLE-WEB-2021-SRG
2021-07-22 14:58:12Hardstyle19120VA_-_Gearbox_Presents_Lockdown_3.0-(GBD325)-WEB-2021-SRG
2021-07-21 15:43:25Hardstyle619Thyron_-_The_Hardstyle_Way-(IAH054)-WEB-2021-SRG_iNT
2021-07-21 15:43:04Hardstyle57Redhot_-_Hallucinations-(SGR021E)-SINGLE-WEB-2021-SRG
2021-07-21 15:42:45Hardstyle58JEEX_-_Power_Of_Harmony-(DWX1024)-SINGLE-WEB-2021-SRG
2021-07-21 15:42:37Hardstyle58Hard_Driver_And_Act_Of_Rage_-_Driven_By_Rage-(DWX1026)-SINGLE-WEB-2021-SRG
2021-07-20 15:43:50Hardstyle511Mazul_-_Love_Of_My_Life-(PRSPX059)-SINGLE-WEB-2021-SRG
2021-07-20 15:43:41Hardstyle59Last_Of_Us_Ft._MERYLL_-_High-(ETY001)-SINGLE-WEB-2021-SRG
2021-07-20 15:43:31Hardstyle510Envine_And_The_Machine_-_On_My_Mind-(SSL228)-SINGLE-WEB-2021-SRG
2021-07-20 15:43:24Hardstyle510Dr_Rude_-_Hypnotized-(DWX1025)-SINGLE-WEB-2021-SRG
2021-07-20 15:43:17Hardstyle513Chronic_Distortion_-_Lightning-(AREC060E)-SINGLE-WEB-2021-SRG
2021-07-19 19:30:57Hardstyle58Strixter_-_Aint_Right-SINGLE-WEB-2021-SRG
2021-07-19 19:30:43Hardstyle59Serzo_-_You-(DWX1020)-SINGLE-WEB-2021-SRG
2021-07-16 14:32:28Hardstyle57Phuture_Noize_-_Keep_Loving_Me._(Tonight)-SINGLE-WEB-2021-SRG_iNT
2021-07-16 13:38:36Hardstyle942VA_-_The_Rookie_EP_Vol.8-(EOL155)-WEB-2021-SRG
2021-07-16 13:38:27Hardstyle58Matzic_-_Rawcrew-(UPR091)-SINGLE-WEB-2021-SRG
2021-07-16 13:38:04Hardstyle58Deluzion_-_Outta_Here-(SCARB040)-SINGLE-WEB-2021-SRG
2021-07-16 13:37:49Hardstyle59Daybreak_-_Escape-(SGR020E)-SINGLE-WEB-2021-SRG
2021-07-15 16:30:18Hardstyle1383Thieves_Of_Dreams_-_Daze-(ACTDIG171)-WEB-2021-SRG_iNT
2021-07-15 16:30:01Hardstyle619ReSpectrum_-_Feeling_Alive__Put_It_On-(BABY084)-WEB-2021-SRG_iNT
2021-07-15 15:51:35Hardstyle58The_Purge_-_Jungle_King-(SSR027)-SINGLE-WEB-2021-SRG
2021-07-15 15:51:15Hardstyle510The_Elite_-_A_Thousand_Journeys-(DWX1000)-SINGLE-WEB-2021-SRG
2021-07-15 15:51:03Hardstyle58Scaarz_-_Say_It-(GBE125)-SINGLE-WEB-2021-SRG
2021-07-15 15:50:54Hardstyle59Limitless_-_Need_You-(PRSPX058)-SINGLE-WEB-2021-SRG
2021-07-15 15:50:51Hardstyle56Imperatorz_-_Total_Domination_(2021_Edit)-(BLACK058)-SINGLE-WEB-2021-SRG
2021-07-15 15:50:10Hardstyle512Aftershock_And_LXCPR_-_Infinite_Force_(Shutdown_Festival_2021_Anthem)-(AOC054)-SINGLE-WEB-2021-SRG
2021-07-14 16:24:36Hardstyle58Wav3motion_-_I_Dont_Know-(DWX1023)-SINGLE-WEB-2021-SRG
2021-07-14 16:24:12Hardstyle510Hardstyle_Mafia_And_Caitlin_Potter_-_Animal-(SPOON229)-SINGLE-WEB-2021-SRG
2021-07-14 16:24:00Hardstyle59Firelite_And_Deviouz_-_Come_Find_Me-(DWX1022)-SINGLE-WEB-2021-SRG
2021-07-14 14:47:00Hardstyle622Rejecta_Ft._Last_Word_-_Still_We_Rise-(Q270PRO)-WEB-2021-SRG_iNT
2021-07-14 14:46:44Hardstyle618ANDY_SVGE_And_Digital_Punk_Ft._Mark_Vayne_-_World_In_Flames-(IAH053)-WEB-2021-SRG_iNT
2021-07-13 16:13:24Hardstyle58Yuta_Imai_-_Rising_Sun-(DWX1021)-SINGLE-WEB-2021-SRG
2021-07-13 16:13:13Hardstyle512Pulserz_-_Invisible-(PRSPX057)-SINGLE-WEB-2021-SRG
2021-07-13 16:13:00Hardstyle58Nightcraft_-_Falling_Deeper-(SCARB039)-SINGLE-WEB-2021-SRG
2021-07-13 16:12:53Hardstyle58Jesus_O.G_And_Fogerz_Ft._Linea_-_Forever_Young-(AWK004E)-SINGLE-WEB-2021-SRG
2021-07-13 16:12:43Hardstyle58Ephesto_-_On_The_Ground-(UNLR013)-SINGLE-WEB-2021-SRG
2021-07-13 16:12:31Hardstyle510D-Block_And_S-Te-Fan_And_Villain_-_We_Dont_Stop_(Lights_Out)_(Warface_Remix)-(EVO072)-SINGLE-WEB-2021-SRG
2021-07-12 10:56:31Hardstyle58Physika_-_My_Everything-(MYM029)-SINGLE-WEB-2021-FMC
2021-07-11 15:20:27Hardstyle621BAQ_-_Dreamers-(FUSION441)-WEB-2021-SRG_iNT
2021-07-09 11:12:01Hardstyle59Unresolved_And_Cryex_-_Everynite-(RSR055)-SINGLE-WEB-2021-SRG
2021-07-09 11:11:52Hardstyle58Releazer_-_Free-(TR068)-SINGLE-WEB-2021-SRG
2021-07-09 11:11:43Hardstyle59Outlined_-_Famous-(UPR090)-SINGLE-WEB-2021-SRG
2021-07-09 11:11:24Hardstyle510Hollow_Point_-_The_Game-(MINUS131)-SINGLE-WEB-2021-SRG